H.A. Clark Memorial Field


Codes: KCMR/
Name: H.A. Clark Memorial Field
City: Williams
Country: United States
Elevation: 6680 ft.

Photos at H.A. Clark Memorial Field


   Photos courtesy of SpottingLog. You can add your own sightings and photos by signing up for a free trial today.



No photos found.

Weather at H.A. Clark Memorial Field


Time (UTC)DescriptionTempratureWindCloud coverageVisibilityPressureHumidity
18-Apr-2024 00:00Clear Sky20°C13 mph, W6%10000m1018hPa18%
18-Apr-2024 03:00Broken Clouds15°C9 mph, SW65%10000m1018hPa25%
18-Apr-2024 06:00Broken Clouds10°C7 mph, S74%10000m1017hPa29%
18-Apr-2024 09:00Clear Sky9°C7 mph, SE5%10000m1016hPa28%
18-Apr-2024 12:00Scattered Clouds9°C7 mph, SE39%10000m1016hPa28%
18-Apr-2024 15:00Overcast Clouds14°C7 mph, S100%10000m1016hPa23%
18-Apr-2024 18:00Overcast Clouds18°C13 mph, SW100%10000m1015hPa19%
18-Apr-2024 21:00Overcast Clouds20°C16 mph, SW100%10000m1013hPa17%
19-Apr-2024 00:00Overcast Clouds17°C16 mph, SW100%10000m1013hPa19%
19-Apr-2024 03:00Overcast Clouds13°C9 mph, SW100%10000m1015hPa25%
19-Apr-2024 06:00Broken Clouds10°C7 mph, S72%10000m1016hPa28%
19-Apr-2024 09:00Clear Sky9°C7 mph, S5%10000m1015hPa27%
19-Apr-2024 12:00Clear Sky8°C7 mph, SE3%10000m1015hPa30%
19-Apr-2024 15:00Clear Sky14°C4 mph, S0%10000m1014hPa21%
19-Apr-2024 18:00Scattered Clouds19°C13 mph, SW26%10000m1012hPa14%
19-Apr-2024 21:00Broken Clouds21°C13 mph, SW67%10000m1009hPa12%
20-Apr-2024 00:00Overcast Clouds19°C16 mph, SW86%10000m1009hPa14%
20-Apr-2024 03:00Clear Sky12°C7 mph, S5%10000m1012hPa26%
20-Apr-2024 06:00Few Clouds11°C4 mph, S19%10000m1013hPa28%
20-Apr-2024 09:00Overcast Clouds11°C2 mph, SE97%10000m1013hPa26%
20-Apr-2024 12:00Broken Clouds8°C2 mph, SE61%10000m1014hPa30%
20-Apr-2024 15:00Clear Sky15°C4 mph, SE1%10000m1014hPa21%
20-Apr-2024 18:00Clear Sky19°C9 mph, W1%10000m1014hPa16%
20-Apr-2024 21:00Clear Sky21°C11 mph, W0%10000m1012hPa14%
21-Apr-2024 00:00Clear Sky20°C11 mph, W8%10000m1011hPa16%
21-Apr-2024 03:00Broken Clouds14°C4 mph, NW65%10000m1014hPa29%
21-Apr-2024 06:00Scattered Clouds11°C2 mph, S46%10000m1017hPa37%
21-Apr-2024 09:00Clear Sky10°C2 mph, SE1%10000m1017hPa46%
21-Apr-2024 12:00Clear Sky10°C2 mph, E0%10000m1017hPa43%
21-Apr-2024 15:00Clear Sky17°C4 mph, NE0%10000m1016hPa27%
21-Apr-2024 18:00Clear Sky21°C7 mph, W3%10000m1014hPa17%
21-Apr-2024 21:00Clear Sky23°C13 mph, W10%10000m1012hPa15%
22-Apr-2024 00:00Few Clouds22°C11 mph, SW19%10000m1010hPa16%
22-Apr-2024 03:00Few Clouds15°C7 mph, SW13%10000m1013hPa32%
22-Apr-2024 06:00Few Clouds13°C4 mph, S11%10000m1015hPa34%
22-Apr-2024 09:00Clear Sky12°C4 mph, SE1%10000m1014hPa36%
22-Apr-2024 12:00Clear Sky11°C4 mph, SE0%10000m1013hPa39%
22-Apr-2024 15:00Clear Sky17°C7 mph, SE0%10000m1012hPa27%
22-Apr-2024 18:00Clear Sky21°C13 mph, SW0%10000m1011hPa16%
22-Apr-2024 21:00Clear Sky23°C18 mph, SW5%10000m1008hPa15%